Time;durP1;ratioP1;P1;durP2;ratioP2;P2;SDS_P1;SDS_P2;PMS_P1;PMS_P2;Temp;Humidity;BMP_temperature;BMP_pressure;BME280_temperature;BME280_humidity;BME280_pressure;Samples;Min_cycle;Max_cycle;Signal;HPM_P1;HPM_P2
2021/03/07 00:00:34;;;;;;;7.47;5.83;;;;;;;0.61;73.71;101342.62;648127;220;24843;-77
2021/03/07 00:03:02;;;;;;;8.37;6.17;;;;;;;0.54;74.14;101338.97;651330;217;26004;-77
2021/03/07 00:05:30;;;;;;;12.00;6.27;;;;;;;0.45;74.80;101341.87;640916;221;24868;-77
2021/03/07 00:07:58;;;;;;;6.40;5.57;;;;;;;0.38;75.38;101346.80;660127;217;24851;-77
2021/03/07 00:10:26;;;;;;;7.80;6.30;;;;;;;0.37;75.17;101340.00;647368;220;24921;-77
2021/03/07 00:12:54;;;;;;;7.83;5.80;;;;;;;0.23;75.46;101342.20;644606;221;25061;-77
2021/03/07 00:15:23;;;;;;;9.90;6.67;;;;;;;0.61;74.84;101344.73;634237;222;32690;-77
2021/03/07 00:17:49;;;;;;;10.97;6.90;;;;;;;0.09;75.68;101341.38;639549;221;23769;-77
2021/03/07 00:20:17;;;;;;;7.90;6.23;;;;;;;-0.16;76.38;101341.33;641709;222;24939;-77
2021/03/07 00:22:45;;;;;;;10.97;6.03;;;;;;;-0.11;77.46;101336.92;627755;226;24941;-77
2021/03/07 00:25:14;;;;;;;7.83;6.70;;;;;;;-0.27;78.33;101345.97;634928;222;24886;-77
2021/03/07 00:27:42;;;;;;;11.10;7.37;;;;;;;-0.35;78.78;101348.75;641796;221;24868;-77
2021/03/07 00:30:10;;;;;;;8.10;6.17;;;;;;;-0.47;79.57;101355.51;653594;219;24890;-77
2021/03/07 00:32:38;;;;;;;9.17;6.47;;;;;;;-0.25;78.97;101356.98;642813;222;24874;-77
2021/03/07 00:35:07;;;;;;;8.20;6.10;;;;;;;0.34;77.27;101338.00;634872;222;32694;-77
2021/03/07 00:37:35;;;;;;;8.20;6.40;;;;;;;0.09;76.84;101332.87;655124;217;23765;-77
2021/03/07 00:40:04;;;;;;;10.48;6.50;;;;;;;0.45;74.90;101329.08;637917;219;32790;-77
2021/03/07 00:42:32;;;;;;;8.37;6.00;;;;;;;0.64;73.96;101310.50;635514;221;32819;-76
2021/03/07 00:45:00;;;;;;;6.53;5.13;;;;;;;0.31;74.43;101307.42;642885;221;24960;-77
2021/03/07 00:47:27;;;;;;;6.73;5.47;;;;;;;0.32;74.31;101304.80;642104;222;24884;-77
2021/03/07 00:49:55;;;;;;;8.20;6.00;;;;;;;0.24;74.61;101301.21;641772;222;24906;-77
2021/03/07 00:52:23;;;;;;;7.28;6.00;;;;;;;0.51;73.94;101291.74;638615;222;32723;-77
2021/03/07 00:54:51;;;;;;;9.50;6.30;;;;;;;0.37;75.02;101297.79;648391;221;23767;-76
2021/03/07 00:57:19;;;;;;;8.60;6.53;;;;;;;0.58;74.10;101300.05;645906;217;32500;-77
2021/03/07 00:59:47;;;;;;;10.20;7.73;;;;;;;0.34;74.60;101292.78;645133;221;24829;-77
2021/03/07 01:02:15;;;;;;;8.13;6.72;;;;;;;0.54;74.53;101294.63;635332;221;32703;-77
2021/03/07 01:04:43;;;;;;;8.40;6.20;;;;;;;0.29;74.71;101297.24;643430;221;24839;-77
2021/03/07 01:07:10;;;;;;;8.15;6.22;;;;;;;0.54;74.01;101288.23;634683;222;32751;-77
2021/03/07 01:09:38;;;;;;;7.90;6.40;;;;;;;0.40;73.71;101285.33;640176;224;25083;-77
2021/03/07 01:12:06;;;;;;;8.20;6.40;;;;;;;0.73;72.78;101280.75;635817;221;43373;-76
2021/03/07 01:14:34;;;;;;;10.53;7.57;;;;;;;0.48;74.96;101284.19;640027;221;25909;-78
2021/03/07 01:17:02;;;;;;;9.18;7.08;;;;;;;0.82;74.41;101281.67;639930;221;32718;-77
2021/03/07 01:19:31;;;;;;;9.40;6.80;;;;;;;0.83;73.52;101272.65;638071;222;32685;-77
2021/03/07 01:21:59;;;;;;;8.47;6.60;;;;;;;-0.09;75.74;101271.23;650954;217;27978;-77
2021/03/07 01:24:27;;;;;;;12.90;7.80;;;;;;;-0.27;77.50;101280.80;658820;217;24837;-77
2021/03/07 01:26:55;;;;;;;16.05;8.50;;;;;;;0.14;76.87;101279.83;650785;217;32652;-77
2021/03/07 01:29:23;;;;;;;11.20;7.07;;;;;;;-0.17;76.85;101280.03;648633;217;23741;-77
2021/03/07 01:31:51;;;;;;;11.38;7.53;;;;;;;0.02;76.76;101280.28;652124;217;32584;-77
2021/03/07 01:34:19;;;;;;;11.40;7.47;;;;;;;-0.22;76.28;101272.97;655201;217;23742;-77
2021/03/07 01:36:47;;;;;;;12.50;6.90;;;;;;;0.00;76.59;101271.38;649571;217;32538;-77
2021/03/07 01:39:15;;;;;;;12.00;7.00;;;;;;;-0.36;77.05;101269.58;661179;217;23781;-77
2021/03/07 01:41:43;;;;;;;10.68;7.00;;;;;;;0.06;76.29;101264.77;650601;217;32537;-77
2021/03/07 01:44:11;;;;;;;7.30;5.90;;;;;;;-0.26;76.05;101255.62;653483;217;23736;-77
2021/03/07 01:46:39;;;;;;;8.60;6.28;;;;;;;0.06;75.83;101255.81;645660;219;32582;-77
2021/03/07 01:49:07;;;;;;;7.83;6.33;;;;;;;0.10;75.06;101242.03;630229;222;32857;-76
2021/03/07 01:51:34;;;;;;;9.50;6.80;;;;;;;0.22;74.42;101225.42;638332;221;32797;-77
2021/03/07 01:54:03;;;;;;;7.20;5.67;;;;;;;-0.20;75.35;101228.58;645353;221;23747;-76
2021/03/07 01:56:30;;;;;;;11.38;6.47;;;;;;;0.04;75.86;101227.36;650020;217;32509;-76
2021/03/07 01:58:58;;;;;;;8.85;6.17;;;;;;;-0.03;75.25;101228.83;644368;218;32534;-77
2021/03/07 02:01:26;;;;;;;9.63;6.00;;;;;;;-0.21;74.93;101219.23;641525;222;23838;-77
2021/03/07 02:03:54;;;;;;;9.30;6.33;;;;;;;-0.29;76.37;101216.09;655069;217;24858;-77
2021/03/07 02:06:22;;;;;;;8.30;6.30;;;;;;;0.01;74.67;101213.41;632241;221;32731;-77
2021/03/07 02:08:50;;;;;;;8.00;6.70;;;;;;;-0.32;75.55;101200.87;637101;221;23807;-77
2021/03/07 02:11:18;;;;;;;8.33;7.08;;;;;;;-0.30;76.75;101200.37;645661;217;32537;-77
2021/03/07 02:13:47;;;;;;;10.23;6.97;;;;;;;-0.52;79.38;101207.92;649776;218;23728;-77
2021/03/07 02:16:15;;;;;;;9.98;7.58;;;;;;;-0.31;78.66;101206.37;631866;221;32651;-77
2021/03/07 02:18:43;;;;;;;11.10;7.67;;;;;;;-0.50;78.95;101202.33;636484;221;23786;-77
2021/03/07 02:21:11;;;;;;;8.68;7.03;;;;;;;-0.30;78.54;101203.76;640955;218;32611;-76
2021/03/07 02:23:49;;;;;;;7.97;6.27;;;;;;;-0.59;78.23;101198.78;651726;219;23828;-76
2021/03/07 02:26:17;;;;;;;9.25;7.03;;;;;;;-0.17;77.29;101193.13;650298;217;32598;-77
2021/03/07 02:28:45;;;;;;;11.00;7.30;;;;;;;-0.41;78.01;101190.98;645834;220;23765;-77
2021/03/07 02:31:13;;;;;;;8.78;7.00;;;;;;;0.08;76.18;101184.16;639939;221;32720;-77
2021/03/07 02:33:41;;;;;;;7.63;6.10;;;;;;;-0.49;77.38;101181.44;645713;221;23780;-77
2021/03/07 02:36:09;;;;;;;8.18;6.67;;;;;;;-0.16;77.00;101179.45;644739;217;32560;-77
2021/03/07 02:38:37;;;;;;;10.07;6.93;;;;;;;-0.54;78.62;101176.94;648767;217;26933;-77
2021/03/07 02:41:06;;;;;;;9.78;7.40;;;;;;;-0.50;77.08;101170.83;632266;222;32866;-76
2021/03/07 02:43:35;;;;;;;8.85;7.03;;;;;;;-0.60;77.43;101168.57;645796;217;32533;-76
2021/03/07 02:46:03;;;;;;;9.43;7.10;;;;;;;-0.95;79.89;101171.44;659249;217;23738;-76
2021/03/07 02:48:30;;;;;;;9.35;6.80;;;;;;;-1.00;81.11;101176.67;638561;221;32664;-76
2021/03/07 02:50:58;;;;;;;9.20;7.13;;;;;;;-1.08;81.39;101170.16;634508;222;23760;-76
2021/03/07 02:53:26;;;;;;;10.45;7.33;;;;;;;-1.07;81.55;101173.94;638499;222;32755;-76
2021/03/07 02:55:55;;;;;;;9.00;7.10;;;;;;;-1.07;82.08;101176.48;636128;221;33015;-76
2021/03/07 02:58:23;;;;;;;8.20;6.50;;;;;;;-1.17;82.41;101171.70;642038;222;23779;-76
2021/03/07 03:00:51;;;;;;;11.28;7.20;;;;;;;-1.10;81.31;101169.37;620921;225;32840;-76
2021/03/07 03:03:19;;;;;;;10.95;7.62;;;;;;;-1.04;81.05;101167.45;631099;221;32733;-77
2021/03/07 03:05:47;;;;;;;10.23;6.70;;;;;;;-1.36;81.74;101169.72;654670;217;23738;-76
2021/03/07 03:08:15;;;;;;;10.70;7.60;;;;;;;-1.66;83.81;101173.17;654170;217;32542;-76
2021/03/07 03:10:43;;;;;;;12.50;8.05;;;;;;;-1.72;84.65;101170.78;636216;221;32775;-76
2021/03/07 03:13:11;;;;;;;12.10;7.27;;;;;;;-1.87;84.64;101176.70;650212;217;23798;-76
2021/03/07 03:15:39;;;;;;;9.98;7.55;;;;;;;-1.69;84.84;101174.51;639921;222;32712;-76
2021/03/07 03:18:07;;;;;;;9.50;6.78;;;;;;;-1.55;83.73;101168.56;642795;220;43387;-76
2021/03/07 03:20:35;;;;;;;10.70;6.60;;;;;;;-1.61;83.76;101166.21;643998;222;23786;-76
2021/03/07 03:23:03;;;;;;;12.40;7.33;;;;;;;-1.47;82.47;101160.27;638396;221;32697;-76
2021/03/07 03:25:31;;;;;;;10.08;7.00;;;;;;;-1.31;81.87;101148.72;637625;222;32712;-76
2021/03/07 03:27:59;;;;;;;10.37;6.70;;;;;;;-1.41;81.76;101146.04;646822;222;23766;-76
2021/03/07 03:30:27;;;;;;;8.53;6.30;;;;;;;-1.28;81.40;101143.52;637804;221;32691;-76
2021/03/07 03:32:55;;;;;;;9.08;6.83;;;;;;;-1.24;81.88;101144.28;636515;221;32689;-77
2021/03/07 03:35:23;;;;;;;10.60;6.77;;;;;;;-1.36;82.91;101142.93;642417;221;23763;-76
2021/03/07 03:37:51;;;;;;;10.93;7.17;;;;;;;-1.38;83.34;101145.14;640665;218;32547;-76
2021/03/07 03:40:19;;;;;;;10.53;7.40;;;;;;;-1.41;84.08;101146.04;635314;222;32725;-76
2021/03/07 03:42:47;;;;;;;9.60;7.37;;;;;;;-1.47;84.46;101155.16;650628;217;23731;-76
2021/03/07 03:45:15;;;;;;;9.25;7.20;;;;;;;-1.35;83.93;101152.25;646444;217;32536;-76
2021/03/07 03:47:44;;;;;;;9.90;7.30;;;;;;;-1.33;83.63;101147.93;630965;222;32696;-76
2021/03/07 03:50:12;;;;;;;10.03;6.90;;;;;;;-1.47;84.40;101146.23;638040;222;23762;-76
2021/03/07 03:52:40;;;;;;;8.48;6.45;;;;;;;-1.36;83.16;101142.93;646758;218;32519;-76
2021/03/07 03:55:08;;;;;;;9.40;7.00;;;;;;;-1.24;82.88;101134.91;635608;222;32694;-76
2021/03/07 03:57:36;;;;;;;7.97;5.90;;;;;;;-1.29;82.34;101122.71;643800;221;23766;-76
2021/03/07 04:00:05;;;;;;;11.18;7.15;;;;;;;-1.26;82.15;101126.91;634678;222;32971;-76
2021/03/07 04:02:33;;;;;;;7.50;5.57;;;;;;;-1.31;82.23;101119.82;637423;221;23789;-76
2021/03/07 04:05:01;;;;;;;9.00;6.30;;;;;;;-1.19;81.75;101124.55;639751;222;32797;-76
2021/03/07 04:07:28;;;;;;;9.10;6.33;;;;;;;-0.97;80.54;101118.33;648923;217;32969;-76
2021/03/07 04:09:56;;;;;;;7.58;6.25;;;;;;;-0.84;79.34;101109.83;634998;221;32813;-76
2021/03/07 04:12:24;;;;;;;7.77;6.63;;;;;;;-1.07;81.04;101110.56;637422;222;23761;-76
2021/03/07 04:14:52;;;;;;;8.83;6.33;;;;;;;-0.97;81.28;101107.67;650513;217;32507;-76
2021/03/07 04:17:20;;;;;;;8.55;5.90;;;;;;;-1.00;80.35;101106.92;650939;217;36473;-76
2021/03/07 04:19:48;;;;;;;8.03;5.53;;;;;;;-1.05;80.30;101113.90;655971;217;23730;-76
2021/03/07 04:22:16;;;;;;;8.03;5.85;;;;;;;-1.06;80.33;101105.85;650514;217;32578;-77
2021/03/07 04:24:44;;;;;;;7.13;5.53;;;;;;;-1.17;80.25;101101.08;650550;217;23746;-76
2021/03/07 04:27:12;;;;;;;8.53;6.00;;;;;;;-1.18;81.63;101115.17;648448;217;32501;-76
2021/03/07 04:29:40;;;;;;;7.58;5.97;;;;;;;-1.22;81.33;101115.27;648514;217;43148;-76
2021/03/07 04:32:07;;;;;;;7.30;5.60;;;;;;;-1.27;81.86;101121.38;653516;217;23736;-76
2021/03/07 04:34:35;;;;;;;8.35;6.37;;;;;;;-1.17;81.70;101121.94;641406;220;32722;-76
2021/03/07 04:37:03;;;;;;;9.50;6.70;;;;;;;-1.13;81.67;101120.51;648490;217;32610;-76
2021/03/07 04:39:31;;;;;;;10.13;6.63;;;;;;;-1.31;82.55;101123.64;640871;221;23751;-76
2021/03/07 04:41:59;;;;;;;7.75;6.10;;;;;;;-1.31;81.93;101118.54;639351;221;32697;-76
2021/03/07 04:44:27;;;;;;;9.15;6.50;;;;;;;-1.37;81.84;101118.30;631104;221;32676;-76
2021/03/07 04:46:55;;;;;;;7.80;5.50;;;;;;;-1.35;81.43;101123.36;650588;217;23720;-76
2021/03/07 04:49:23;;;;;;;8.55;6.50;;;;;;;-1.27;81.67;101119.70;636478;221;32737;-76
2021/03/07 04:51:52;;;;;;;9.38;6.90;;;;;;;-1.24;81.81;101116.21;633359;222;32694;-75
2021/03/07 04:54:19;;;;;;;9.87;5.83;;;;;;;-1.26;81.84;101113.71;648008;218;23998;-76
2021/03/07 04:56:47;;;;;;;8.88;6.37;;;;;;;-1.29;82.12;101125.70;637089;222;32681;-76
2021/03/07 04:59:15;;;;;;;5.97;5.00;;;;;;;-1.26;81.66;101119.25;648639;221;23811;-76
2021/03/07 05:01:43;;;;;;;8.10;5.67;;;;;;;-1.24;80.08;101102.17;622834;225;32890;-76
2021/03/07 05:04:11;;;;;;;7.65;5.58;;;;;;;-1.17;79.73;101100.25;635224;222;43355;-76
2021/03/07 05:06:40;;;;;;;6.77;5.23;;;;;;;-1.34;80.65;101093.13;655963;217;23742;-76
2021/03/07 05:09:07;;;;;;;10.32;5.70;;;;;;;-1.37;80.69;101100.45;633133;223;32662;-76
2021/03/07 05:11:35;;;;;;;7.42;5.60;;;;;;;-1.45;81.41;101106.21;641805;216;32556;-76
2021/03/07 05:14:03;;;;;;;7.10;5.40;;;;;;;-1.58;82.59;101111.28;650560;218;23742;-76
2021/03/07 05:17:34;;;;;;;9.07;5.90;;;;;;;-1.65;82.24;101114.91;656257;217;28880;-76
2021/03/07 05:20:02;;;;;;;8.85;5.90;;;;;;;-1.56;82.05;101116.73;644348;216;32695;-76
2021/03/07 05:22:30;;;;;;;7.55;5.87;;;;;;;-1.56;81.36;101109.08;637408;221;32653;-76
2021/03/07 05:24:57;;;;;;;9.00;5.80;;;;;;;-1.80;82.55;101109.83;628888;226;23797;-76
2021/03/07 05:27:25;;;;;;;7.83;6.17;;;;;;;-1.84;83.06;101120.53;635496;221;32994;-76
2021/03/07 05:29:53;;;;;;;7.50;5.97;;;;;;;-1.92;83.08;101119.93;634409;220;32736;-76
2021/03/07 05:32:21;;;;;;;8.85;6.17;;;;;;;-1.96;83.79;101118.80;624207;226;32869;-76
2021/03/07 05:34:49;;;;;;;7.77;5.40;;;;;;;-2.17;85.20;101118.94;647451;221;23750;-75
2021/03/07 05:37:17;;;;;;;8.25;6.40;;;;;;;-2.16;85.75;101127.81;642512;220;32652;-76
2021/03/07 05:39:45;;;;;;;8.38;6.00;;;;;;;-2.21;85.71;101122.45;640279;221;32648;-76
2021/03/07 05:42:13;;;;;;;7.17;5.90;;;;;;;-2.29;85.92;101121.37;633060;225;23794;-76
2021/03/07 05:44:41;;;;;;;7.75;5.80;;;;;;;-2.36;86.27;101124.98;626609;225;33112;-76
2021/03/07 05:47:09;;;;;;;8.63;5.87;;;;;;;-2.34;86.99;101130.86;634792;221;32671;-76
2021/03/07 05:49:36;;;;;;;7.53;5.20;;;;;;;-2.45;87.01;101126.48;634918;225;23803;-76
2021/03/07 05:52:05;;;;;;;7.60;5.80;;;;;;;-2.37;86.41;101124.58;641568;220;32870;-75
2021/03/07 05:54:32;;;;;;;9.43;6.08;;;;;;;-2.26;86.38;101126.81;623353;225;32866;-76
2021/03/07 05:57:00;;;;;;;7.77;5.00;;;;;;;-2.21;85.70;101122.02;646799;220;23785;-75
2021/03/07 05:59:29;;;;;;;7.35;5.47;;;;;;;-2.03;84.74;101114.30;623741;225;32845;-76
2021/03/07 06:01:57;;;;;;;7.00;5.40;;;;;;;-1.90;83.68;101116.06;640344;220;35679;-76
2021/03/07 06:04:24;;;;;;;8.27;5.47;;;;;;;-2.02;83.29;101111.30;634698;225;24928;-76
2021/03/07 06:06:52;;;;;;;7.80;5.50;;;;;;;-1.90;82.66;101106.70;624252;225;32907;-75
2021/03/07 06:09:22;;;;;;;9.90;6.33;;;;;;;-1.70;83.25;101104.83;628247;225;33072;-76
2021/03/07 06:11:50;;;;;;;7.55;5.65;;;;;;;-1.65;81.63;101095.34;639803;221;33093;-76
2021/03/07 06:14:21;;;;;;;6.67;5.10;;;;;;;-1.69;81.65;101096.73;640779;222;23769;-76
2021/03/07 06:16:58;;;;;;;6.37;5.17;;;;;;;-1.56;81.19;101089.95;637921;221;32674;-76
2021/03/07 06:19:26;;;;;;;7.40;5.97;;;;;;;-1.73;82.78;101101.11;637751;220;32740;-75
2021/03/07 06:21:54;;;;;;;7.78;6.10;;;;;;;-1.92;82.49;101107.19;635582;224;32672;-76
2021/03/07 06:24:33;;;;;;;8.93;5.70;;;;;;;-1.91;84.09;101119.05;643255;222;23767;-75
2021/03/07 06:27:05;;;;;;;8.20;5.63;;;;;;;-1.88;84.44;101121.50;635654;221;32687;-75
2021/03/07 06:29:33;;;;;;;8.60;5.45;;;;;;;-1.89;84.67;101115.18;638114;220;32676;-76
2021/03/07 06:32:01;;;;;;;8.13;5.00;;;;;;;-1.80;83.34;101117.03;640705;221;23765;-76
2021/03/07 06:34:42;;;;;;;9.35;5.47;;;;;;;-1.60;82.85;101111.78;638746;220;33832;-76
2021/03/07 06:37:10;;;;;;;7.97;6.03;;;;;;;-1.53;83.23;101110.73;634775;221;32844;-75
2021/03/07 06:39:37;;;;;;;9.60;5.83;;;;;;;-1.51;82.21;101101.31;633261;221;32658;-76
2021/03/07 06:42:05;;;;;;;5.93;4.90;;;;;;;-1.44;81.10;101096.40;643386;221;23765;-76
2021/03/07 06:44:33;;;;;;;6.75;5.60;;;;;;;-1.29;80.50;101089.55;635412;222;32598;-76
2021/03/07 06:47:08;;;;;;;6.20;4.87;;;;;;;-1.02;79.73;101076.78;634209;221;32693;-76
2021/03/07 06:49:37;;;;;;;8.40;4.57;;;;;;;-0.89;79.05;101081.88;638246;224;23775;-76
2021/03/07 06:52:12;;;;;;;6.58;5.20;;;;;;;-0.63;78.75;101071.63;633269;222;32788;-75
2021/03/07 06:54:40;;;;;;;8.10;5.60;;;;;;;-0.52;78.32;101071.70;638922;222;32663;-76
2021/03/07 06:57:08;;;;;;;6.97;5.10;;;;;;;-0.70;78.66;101065.07;645217;221;24927;-76
2021/03/07 06:59:36;;;;;;;7.47;5.20;;;;;;;-0.42;79.09;101067.95;628876;225;32806;-77
2021/03/07 07:02:10;;;;;;;8.43;5.10;;;;;;;-0.51;78.10;101064.42;632137;225;23801;-76
2021/03/07 07:04:40;;;;;;;6.47;4.90;;;;;;;-0.33;77.91;101066.32;636340;220;32655;-76
2021/03/07 07:07:08;;;;;;;5.70;4.43;;;;;;;-0.28;77.41;101060.63;650526;220;23776;-76
2021/03/07 07:09:36;;;;;;;7.25;5.58;;;;;;;-0.10;77.11;101060.39;629683;225;31946;-76
2021/03/07 07:12:05;;;;;;;6.30;4.80;;;;;;;-0.17;76.96;101060.20;641529;221;23747;-75
2021/03/07 07:14:38;;;;;;;7.78;5.47;;;;;;;0.16;76.50;101058.14;642243;221;32672;-76
2021/03/07 07:17:02;;;;;;;7.10;5.50;;;;;;;0.16;76.02;101055.59;626733;226;23862;-76
2021/03/07 07:19:30;;;;;;;6.40;5.15;;;;;;;0.15;76.62;101056.48;643726;220;32650;-76
2021/03/07 07:21:58;;;;;;;7.42;5.53;;;;;;;0.24;76.48;101059.94;644225;220;32679;-76
2021/03/07 07:24:26;;;;;;;7.72;5.30;;;;;;;0.32;76.19;101059.22;623127;225;33275;-76
2021/03/07 07:26:56;;;;;;;6.13;4.43;;;;;;;0.27;75.42;101053.42;640545;223;23761;-76
2021/03/07 07:29:24;;;;;;;7.47;4.77;;;;;;;0.39;75.46;101054.23;641305;223;24892;-76
2021/03/07 07:31:54;;;;;;;6.50;4.72;;;;;;;0.49;74.77;101045.77;635911;223;32652;-76
2021/03/07 07:34:24;;;;;;;7.93;5.40;;;;;;;0.44;74.89;101042.11;639802;223;26931;-76
2021/03/07 07:36:52;;;;;;;6.75;5.12;;;;;;;0.70;75.99;101056.41;635247;223;32653;-76
2021/03/07 07:39:24;;;;;;;6.47;5.27;;;;;;;0.73;74.88;101060.59;632602;226;23823;-75
2021/03/07 07:41:52;;;;;;;8.23;5.15;;;;;;;0.75;74.52;101054.52;639477;220;32920;-76
2021/03/07 07:44:29;;;;;;;8.45;5.40;;;;;;;0.96;74.27;101057.92;629524;225;32810;-76
2021/03/07 07:46:58;;;;;;;6.50;5.53;;;;;;;0.89;73.62;101055.23;650837;220;23760;-76
2021/03/07 07:49:35;;;;;;;7.33;5.60;;;;;;;1.01;72.98;101038.55;644835;221;32633;-77
2021/03/07 07:52:04;;;;;;;8.20;5.40;;;;;;;1.12;73.57;101043.58;627408;225;32937;-76
2021/03/07 07:54:48;;;;;;;7.58;5.75;;;;;;;1.39;72.69;101042.84;626669;225;32982;-76
2021/03/07 07:57:40;;;;;;;7.13;5.20;;;;;;;1.10;72.34;101035.12;629856;225;23813;-77
2021/03/07 08:00:07;;;;;;;6.35;5.00;;;;;;;1.40;72.91;101036.00;632699;222;32865;-76
2021/03/07 08:02:54;;;;;;;5.80;4.90;;;;;;;1.31;71.97;101032.12;650291;220;23772;-75
2021/03/07 08:05:43;;;;;;;7.33;4.83;;;;;;;1.37;71.25;101030.56;628286;225;32612;-75
2021/03/07 08:08:13;;;;;;;7.43;5.37;;;;;;;1.17;72.04;101026.75;638370;225;23824;-76
2021/03/07 08:10:49;;;;;;;5.73;4.40;;;;;;;1.32;71.33;101029.94;645549;221;24917;-76
2021/03/07 08:13:42;;;;;;;9.10;5.30;;;;;;;1.41;71.15;101036.41;644302;221;24869;-76
2021/03/07 08:16:10;;;;;;;6.77;4.93;;;;;;;1.56;71.33;101034.91;636406;225;25959;-76
2021/03/07 08:18:45;;;;;;;7.77;4.83;;;;;;;1.60;70.71;101025.72;651290;220;24871;-76
2021/03/07 08:21:13;;;;;;;8.63;4.90;;;;;;;1.67;69.41;101026.27;648302;221;24971;-77
2021/03/07 08:23:58;;;;;;;7.97;5.62;;;;;;;1.99;70.02;101023.09;624703;225;32821;-76
2021/03/07 08:26:27;;;;;;;6.80;5.17;;;;;;;2.05;69.36;101010.42;631235;225;23808;-76
2021/03/07 08:28:54;;;;;;;8.93;4.97;;;;;;;2.08;68.25;101012.84;649839;220;24871;-76
2021/03/07 08:31:33;;;;;;;6.50;5.27;;;;;;;2.21;68.88;101006.69;644215;221;24894;-76
2021/03/07 08:34:11;;;;;;;7.13;5.20;;;;;;;2.36;68.27;101009.81;646811;220;25947;-75
2021/03/07 08:36:51;;;;;;;8.08;5.20;;;;;;;2.66;68.74;101012.63;639043;221;32753;-76
2021/03/07 08:39:19;;;;;;;5.30;4.77;;;;;;;2.52;66.63;101000.92;625956;225;23789;-76
2021/03/07 08:41:56;;;;;;;6.77;5.47;;;;;;;2.57;67.02;100999.81;630691;225;24964;-76
2021/03/07 08:44:24;;;;;;;6.67;4.80;;;;;;;2.74;65.39;100994.30;627244;225;24954;-77
2021/03/07 08:46:52;;;;;;;7.00;5.30;;;;;;;2.87;66.75;100987.64;623474;225;43543;-77
2021/03/07 08:49:19;;;;;;;8.43;5.60;;;;;;;2.87;65.85;100976.91;635032;223;24832;-76
2021/03/07 08:51:47;;;;;;;5.30;4.63;;;;;;;3.09;65.97;100973.24;643480;220;24897;-76
2021/03/07 08:54:15;;;;;;;8.90;4.50;;;;;;;2.96;64.58;100961.05;642268;221;24907;-76
2021/03/07 08:56:44;;;;;;;5.25;4.28;;;;;;;3.31;64.79;100961.41;639258;221;43619;-75
2021/03/07 08:59:12;;;;;;;4.50;4.10;;;;;;;2.96;64.06;100958.48;642262;221;25878;-76
2021/03/07 09:01:40;;;;;;;7.47;5.20;;;;;;;3.08;63.68;100958.28;629940;225;24933;-76
2021/03/07 09:04:08;;;;;;;6.63;4.87;;;;;;;3.20;63.66;100958.94;646120;221;24902;-77
2021/03/07 09:06:36;;;;;;;6.80;5.10;;;;;;;3.21;64.49;100957.19;637169;225;24935;-75
2021/03/07 09:09:05;;;;;;;6.30;4.87;;;;;;;3.33;64.17;100951.41;629986;224;24930;-76
2021/03/07 09:11:33;;;;;;;6.30;4.50;;;;;;;3.62;64.09;100952.44;628820;226;24925;-76
2021/03/07 09:14:01;;;;;;;7.27;4.93;;;;;;;3.44;64.57;100953.42;640504;223;24885;-76
2021/03/07 09:16:36;;;;;;;6.90;4.90;;;;;;;3.50;62.13;100944.92;637609;225;24907;-75
2021/03/07 09:19:18;;;;;;;13.00;4.50;;;;;;;3.87;62.51;100937.34;644946;221;24910;-75
2021/03/07 09:21:46;;;;;;;5.23;4.47;;;;;;;4.10;62.86;100933.95;646820;221;24875;-76
2021/03/07 09:24:14;;;;;;;6.20;4.40;;;;;;;4.17;61.27;100927.07;633489;225;24895;-76
2021/03/07 09:26:42;;;;;;;5.57;4.40;;;;;;;4.23;62.76;100930.23;648680;221;27029;-76
2021/03/07 09:29:10;;;;;;;5.50;4.47;;;;;;;4.46;61.18;100918.97;631307;226;24899;-75
2021/03/07 09:31:38;;;;;;;8.73;5.60;;;;;;;4.43;62.29;100915.75;636351;225;24854;-76
2021/03/07 09:34:06;;;;;;;7.50;5.33;;;;;;;4.74;61.23;100919.48;626387;225;24900;-76
2021/03/07 09:36:35;;;;;;;6.57;4.93;;;;;;;4.55;60.50;100916.33;639881;223;24893;-76
2021/03/07 09:39:03;;;;;;;6.08;4.50;;;;;;;4.75;60.54;100911.29;625147;225;32798;-76
2021/03/07 09:41:31;;;;;;;6.17;5.03;;;;;;;4.75;60.86;100905.67;647893;220;23804;-76
2021/03/07 09:44:00;;;;;;;4.40;4.00;;;;;;;4.86;61.35;100903.76;644982;221;24882;-76
2021/03/07 09:46:29;;;;;;;5.43;4.57;;;;;;;4.93;59.88;100892.17;642815;220;25290;-76
2021/03/07 09:48:58;;;;;;;7.25;4.60;;;;;;;5.27;58.71;100888.36;640293;221;32571;-76
2021/03/07 09:51:29;;;;;;;6.30;4.53;;;;;;;5.41;60.20;100892.67;632382;225;24902;-77
2021/03/07 09:53:56;;;;;;;7.90;5.07;;;;;;;5.26;58.62;100884.59;645869;220;24919;-76
2021/03/07 09:56:25;;;;;;;5.93;4.60;;;;;;;5.50;59.58;100888.70;634953;225;24961;-76
2021/03/07 09:58:53;;;;;;;6.30;4.90;;;;;;;5.51;57.67;100880.86;627098;225;24903;-76
2021/03/07 10:01:21;;;;;;;6.80;5.13;;;;;;;5.57;57.58;100875.77;625912;225;24906;-76
2021/03/07 10:03:49;;;;;;;5.97;4.60;;;;;;;5.45;58.66;100871.37;647798;220;26334;-76
2021/03/07 10:06:17;;;;;;;6.73;5.03;;;;;;;5.32;60.41;100876.00;648957;220;24872;-75
2021/03/07 10:08:45;;;;;;;5.83;4.70;;;;;;;5.33;58.96;100869.09;648897;221;24892;-76
2021/03/07 10:11:16;;;;;;;7.00;5.00;;;;;;;5.87;59.00;100872.52;642254;221;24862;-75
2021/03/07 10:13:44;;;;;;;7.00;5.57;;;;;;;5.99;58.78;100863.66;629283;225;24900;-75
2021/03/07 10:16:12;;;;;;;6.43;4.70;;;;;;;5.94;58.32;100860.92;638104;223;24872;-76
2021/03/07 10:18:41;;;;;;;7.20;5.83;;;;;;;6.32;58.32;100864.02;642380;223;28075;-81
2021/03/07 10:21:09;;;;;;;7.62;5.37;;;;;;;6.59;56.84;100854.88;637698;220;32751;-77
2021/03/07 10:23:37;;;;;;;7.33;5.50;;;;;;;6.17;59.46;100867.61;633462;225;23788;-78
2021/03/07 10:26:06;;;;;;;8.30;6.47;;;;;;;6.15;60.07;100866.42;640868;223;24887;-78
2021/03/07 10:28:35;;;;;;;9.97;5.00;;;;;;;5.88;58.36;100856.10;642532;223;24911;-77
2021/03/07 10:31:07;;;;;;;7.53;5.60;;;;;;;5.85;58.48;100849.02;632823;223;32679;-77
2021/03/07 10:33:35;;;;;;;6.57;5.27;;;;;;;5.39;60.22;100855.00;640536;221;23782;-76
2021/03/07 10:36:06;;;;;;;7.30;5.40;;;;;;;5.64;59.42;100862.86;632503;221;32670;-76
2021/03/07 10:38:34;;;;;;;7.83;6.20;;;;;;;5.31;60.38;100864.03;632130;225;23779;-77
2021/03/07 10:41:17;;;;;;;6.70;5.27;;;;;;;5.61;60.84;100856.58;646141;220;24877;-75
2021/03/07 10:43:46;;;;;;;7.93;5.80;;;;;;;5.73;60.50;100858.84;629913;225;24906;-76
2021/03/07 10:46:25;;;;;;;7.63;5.80;;;;;;;5.81;59.83;100857.44;645333;220;24910;-76
2021/03/07 10:48:54;;;;;;;9.30;5.87;;;;;;;6.03;58.83;100856.06;648033;220;24849;-76
2021/03/07 10:51:22;;;;;;;7.97;5.30;;;;;;;6.14;57.93;100855.73;644957;221;24889;-75
2021/03/07 10:53:50;;;;;;;7.53;5.03;;;;;;;6.52;57.97;100849.31;629139;225;27178;-75
2021/03/07 10:56:18;;;;;;;6.27;5.40;;;;;;;6.75;58.64;100846.91;647277;221;25110;-74
2021/03/07 10:58:46;;;;;;;8.93;6.30;;;;;;;6.76;58.11;100839.08;647871;221;25067;-74
2021/03/07 11:01:15;;;;;;;9.23;5.53;;;;;;;6.58;57.74;100833.84;633632;225;25016;-77
2021/03/07 11:03:43;;;;;;;5.87;5.00;;;;;;;6.71;57.17;100832.55;630028;225;24908;-76
2021/03/07 11:06:11;;;;;;;8.90;6.40;;;;;;;6.89;57.56;100831.27;645762;221;24948;-76
2021/03/07 11:08:39;;;;;;;6.53;5.50;;;;;;;7.11;56.59;100826.73;635418;221;32654;-76
2021/03/07 11:11:07;;;;;;;7.23;6.37;;;;;;;6.99;57.37;100827.59;632965;225;23713;-76
2021/03/07 11:13:35;;;;;;;6.10;5.50;;;;;;;7.12;57.37;100826.63;630279;226;24939;-73
2021/03/07 11:16:03;;;;;;;7.80;5.70;;;;;;;7.55;56.20;100818.40;648707;220;24871;-74
2021/03/07 11:18:31;;;;;;;8.60;5.92;;;;;;;7.70;55.54;100815.98;636284;221;32697;-73
2021/03/07 11:20:59;;;;;;;7.47;6.20;;;;;;;7.63;55.97;100808.33;640419;219;23777;-74
2021/03/07 11:23:27;;;;;;;7.77;6.90;;;;;;;8.07;56.73;100817.65;645458;220;25171;-74
2021/03/07 11:25:55;;;;;;;7.93;6.30;;;;;;;7.91;55.39;100812.78;643341;221;24898;-77
2021/03/07 11:28:23;;;;;;;8.73;6.30;;;;;;;8.01;54.95;100813.27;648598;221;24879;-76
2021/03/07 11:30:52;;;;;;;7.30;5.40;;;;;;;8.28;54.85;100803.07;629914;225;24950;-76
2021/03/07 11:33:20;;;;;;;9.57;5.43;;;;;;;8.78;52.96;100800.55;649823;220;24900;-74
2021/03/07 11:35:48;;;;;;;6.57;5.27;;;;;;;8.91;53.15;100786.97;642651;221;24878;-75
2021/03/07 11:38:16;;;;;;;7.40;5.67;;;;;;;8.65;52.72;100784.75;634157;226;24927;-75